CYBK

Details ICAO CYBK (YBK)
Name BAKER LAKE
Region Canada
Timezone America/Rankin_Inlet (UTC-5.0)
Plans Departing 8
Arriving 16
Stats Elevation 59 ft / 18 m (AMSL)
Location 64.298889° -96.077777°
Runways 1
Magnetic Variation 2.526° W
Sunrise 2018-05-26 08:34:13 UTC / 2018-05-26 03:34:13 Local
Sunset 2018-05-27 04:11:26 UTC / 2018-05-26 23:11:26 Local
Advertisement - Login to hide

Runways

ID Width Length Bearing (true) Bearing (mag) Surface Threshold Offset Overrun Length
16T 100 ft / 30 m 4,262 ft / 1,299 m 161.96° 164.49° Gravel 0 ft / 0 m 0 ft / 0 m
34T 100 ft / 30 m 4,262 ft / 1,299 m 341.97° 344.50° Gravel 0 ft / 0 m 0 ft / 0 m

Map

Weather


0- 5 10 15 20 25 30 35+ Temperature / ° C

Clouds and Precipitation
Forecast for 2018-05-26 18:00 UTC. Updated an hour ago

Ground ~20,000 ft ~40,000 ft Winds

METAR

CYBK 261800Z CCA 16017KT 15SM OVC007 01/M01 A2961 RMK ST8 SLP030

TAF

TAF AMD TAF AMD CYBK 261757Z 2618/2706 16015KT P6SM OVC008 TEMPO 2618/2706 4SM -DZ BR OVC004 BECMG 2702/2704 VRB03KT RMK NXT FCST BY 270000Z

Frequencies

Unicom 122.10 MHz ARPT RDO
Warning: Do not use this data for real-world aviation or navigation. No guarantee of current accuracy is given.